Archival Weather

Granbury Rgnl

Granbury, Texas (KGDJ)

Report from: Monday, January 29, 2024 1:15 AM UTC
Current time: Tuesday, June 18, 2024 12:45 PM UTC

Current weather – Weather history – Daily summaries
Weather forecast

Temperature8.5°C (47.3°F)
Dew point3.6°C (38.5°F)
Winds Calm
Visibility10 mi. (16.1 km)
Clouds Sky clear
Altimeter30.36 in.Hg (1028 mB)
Relative humidity71 %
Density altitude-1,165 ft. (-355 m)
Remarks Fully automated report
Automated weather observing station with precipitation discriminator
Flight conditions Visual Meteorological Conditions
Raw dataKGDJ 290115Z AUTO 00000KT 10SM CLR 09/04 A3036 RMK AO2 T00850036
An error has occurred. This application may no longer respond until reloaded. Reload 🗙